Morris, IL (60450)

08:53 PM CDT die 19o September, anno 2014 (GMT -0500)
Morris North | Change Station
CLOSE
Current Station
Personal Weather Stations
Location: Morris, IL
Elevation: 548 ft
Nearby Weather Stations

Elev 548 ft 41.38 °N, 88.43 °W | Updated 1 second ago

Serena
Serena
64.4 °F
Feels Like 64.4 °F
N
4.5
Ventus Variabilis Ventus from Inter Austrum et Eurum
Gusts 7.6 mph

Hodie
High -- | Low -- °F
--% Chance of Precip.
Yesterday
High -- | Low -- °F
Precip. -- in
6:38 AM 6:56 PM
Waning Crescent, 15% visible
Pressio 29.99 in
Visibilitas 10.0 milia passuum
Clouds Serena
Frigus in quo Ros apparet 52 °F
Umor 65%
Rainfall 0.00 in
Snow Depth Not available.
UV 0 out of 12
Pollen 4.40 out of 12
Ozone Good
PM2.5 Good
Flu Activity Not available.
METAR KC09 200135Z AUTO 16006KT 10SM CLR 16/11 A2999 RMK AO2 T01610110

More Conditions Fewer Conditions

Pressio 29.99 in
Visibilitas 10.0 milia passuum
Clouds Serena
Frigus in quo Ros apparet 52 °F
Umor 65%
Rainfall 0.00 in
Snow Depth Not available.
UV 0 out of 12
Pollen 4.40 out of 12
Ozone Good
PM2.5 Good
Flu Activity Not available.
METAR KC09 200135Z AUTO 16006KT 10SM CLR 16/11 A2999 RMK AO2 T01610110

More Conditions Fewer Conditions

10-Day Weather Forecast

Almanac

Astronomy

Sep. 19, 2014 Rise Set
Actual Time 6:38 AM CDT 6:56 PM CDT
Civil Twilight 6:10 AM CDT 7:23 PM CDT
Nautical Twilight 5:37 AM CDT 7:56 PM CDT
Astronomical Twilight 5:04 AM CDT 8:29 PM CDT
Moon 2:20 AM CDT (9/19) 4:26 PM CDT (9/19)
Length Of Visible Light 13h 13m
Length of Day
12h 17m
Tomorrow will be 2m 44s shorter.
Waning Crescent, 15% of the Moon is Illuminated
Hodie
Waning Crescent
Sep 24
New
Oct 1
First Quarter
Oct 8
Full
Oct 15
Last Quarter

Today's Extremes

State Highs State Lows

Community

WunderPhotos

Upload Photos

1,754,760 photos uploaded!

WunderBlogs® & News

Nearby

Air Quality

  Air Quality AQ Index Pollutant
Yesterday Moderate
PM2.5
Yesterday Good
OZONE
Current Good
OZONE
Current Good
PM2.5
Die Veneris Moderate
PM2.5
Die Saturni Moderate
PM2.5
Die Solis Good
PM2.5
Die Lunae Good
PM2.5
Die Martis Moderate
PM2.5

Snow Depth

Station Depth Elevation
No new snow has been reported.

Earthquake Activity

City Distance Mag. Time & Date
No recent earthquake activity has been reported nearby.
Minimum magnitude displayed is 2.5.

Coastal Water Temperatures

Locus Calor
No Stations Reporting

Nearby Weather Stations